sensor_id;sensor_type;location;lat;lon;timestamp;P1;durP1;ratioP1;P2;durP2;ratioP2
38567;SDS011;24338;48.280;10.970;2022-11-20T00:00:17;4.78;;;2.88;;
38567;SDS011;24338;48.280;10.970;2022-11-20T00:02:44;6.28;;;3.63;;
38567;SDS011;24338;48.280;10.970;2022-11-20T00:05:11;5.68;;;3.25;;
38567;SDS011;24338;48.280;10.970;2022-11-20T00:07:38;5.22;;;3.25;;
38567;SDS011;24338;48.280;10.970;2022-11-20T00:10:05;4.88;;;2.97;;
38567;SDS011;24338;48.280;10.970;2022-11-20T00:12:32;6.00;;;3.53;;
38567;SDS011;24338;48.280;10.970;2022-11-20T00:14:59;6.70;;;3.63;;
38567;SDS011;24338;48.280;10.970;2022-11-20T00:17:26;5.80;;;3.17;;
38567;SDS011;24338;48.280;10.970;2022-11-20T00:19:53;5.93;;;3.17;;
38567;SDS011;24338;48.280;10.970;2022-11-20T00:22:20;5.38;;;2.75;;
38567;SDS011;24338;48.280;10.970;2022-11-20T00:24:46;8.18;;;3.63;;
38567;SDS011;24338;48.280;10.970;2022-11-20T00:27:13;6.03;;;3.20;;
38567;SDS011;24338;48.280;10.970;2022-11-20T00:29:40;5.97;;;3.28;;
38567;SDS011;24338;48.280;10.970;2022-11-20T00:32:07;7.72;;;4.10;;
38567;SDS011;24338;48.280;10.970;2022-11-20T00:34:34;6.45;;;3.30;;
38567;SDS011;24338;48.280;10.970;2022-11-20T00:37:01;7.13;;;4.15;;
38567;SDS011;24338;48.280;10.970;2022-11-20T00:39:28;5.25;;;3.40;;
38567;SDS011;24338;48.280;10.970;2022-11-20T00:41:54;5.47;;;3.22;;
38567;SDS011;24338;48.280;10.970;2022-11-20T00:44:21;8.10;;;2.97;;
38567;SDS011;24338;48.280;10.970;2022-11-20T00:46:48;8.73;;;3.28;;
38567;SDS011;24338;48.280;10.970;2022-11-20T00:49:15;5.70;;;3.50;;
38567;SDS011;24338;48.280;10.970;2022-11-20T00:51:42;5.65;;;3.35;;
38567;SDS011;24338;48.280;10.970;2022-11-20T00:54:09;6.57;;;3.65;;
38567;SDS011;24338;48.280;10.970;2022-11-20T00:56:36;5.35;;;3.40;;
38567;SDS011;24338;48.280;10.970;2022-11-20T00:59:03;5.43;;;3.10;;
38567;SDS011;24338;48.280;10.970;2022-11-20T01:01:30;5.88;;;3.65;;
38567;SDS011;24338;48.280;10.970;2022-11-20T01:03:57;5.90;;;3.47;;
38567;SDS011;24338;48.280;10.970;2022-11-20T01:06:27;8.35;;;3.90;;
38567;SDS011;24338;48.280;10.970;2022-11-20T01:08:55;6.82;;;3.30;;
38567;SDS011;24338;48.280;10.970;2022-11-20T01:11:28;7.25;;;4.80;;
38567;SDS011;24338;48.280;10.970;2022-11-20T01:13:57;5.22;;;3.28;;
38567;SDS011;24338;48.280;10.970;2022-11-20T01:16:29;4.95;;;2.92;;
38567;SDS011;24338;48.280;10.970;2022-11-20T01:19:00;6.85;;;3.67;;
38567;SDS011;24338;48.280;10.970;2022-11-20T01:23:58;5.78;;;2.88;;
38567;SDS011;24338;48.280;10.970;2022-11-20T01:26:27;5.50;;;3.05;;
38567;SDS011;24338;48.280;10.970;2022-11-20T01:29:00;5.15;;;3.40;;
38567;SDS011;24338;48.280;10.970;2022-11-20T01:31:29;5.85;;;3.42;;
38567;SDS011;24338;48.280;10.970;2022-11-20T01:33:59;5.43;;;3.20;;
38567;SDS011;24338;48.280;10.970;2022-11-20T01:36:30;6.28;;;3.58;;
38567;SDS011;24338;48.280;10.970;2022-11-20T01:38:59;6.22;;;3.25;;
38567;SDS011;24338;48.280;10.970;2022-11-20T01:41:28;6.18;;;3.22;;
38567;SDS011;24338;48.280;10.970;2022-11-20T01:44:15;5.88;;;3.65;;
38567;SDS011;24338;48.280;10.970;2022-11-20T01:46:51;7.57;;;3.65;;
38567;SDS011;24338;48.280;10.970;2022-11-20T01:49:25;5.90;;;3.78;;
38567;SDS011;24338;48.280;10.970;2022-11-20T01:52:01;5.80;;;3.25;;
38567;SDS011;24338;48.280;10.970;2022-11-20T01:54:52;5.03;;;3.03;;
38567;SDS011;24338;48.280;10.970;2022-11-20T01:57:25;7.00;;;3.50;;
38567;SDS011;24338;48.280;10.970;2022-11-20T02:00:00;7.18;;;3.83;;
38567;SDS011;24338;48.280;10.970;2022-11-20T02:02:31;7.05;;;4.20;;
38567;SDS011;24338;48.280;10.970;2022-11-20T02:05:01;8.25;;;4.25;;
38567;SDS011;24338;48.280;10.970;2022-11-20T02:07:38;7.90;;;4.18;;
38567;SDS011;24338;48.280;10.970;2022-11-20T02:10:05;6.53;;;4.07;;
38567;SDS011;24338;48.280;10.970;2022-11-20T02:12:32;7.25;;;4.53;;
38567;SDS011;24338;48.280;10.970;2022-11-20T02:15:18;6.65;;;4.18;;
38567;SDS011;24338;48.280;10.970;2022-11-20T02:17:45;6.45;;;4.15;;
38567;SDS011;24338;48.280;10.970;2022-11-20T02:20:11;7.75;;;4.43;;
38567;SDS011;24338;48.280;10.970;2022-11-20T02:22:43;6.22;;;4.18;;
38567;SDS011;24338;48.280;10.970;2022-11-20T02:25:19;5.68;;;3.63;;
38567;SDS011;24338;48.280;10.970;2022-11-20T02:27:47;6.53;;;4.07;;
38567;SDS011;24338;48.280;10.970;2022-11-20T02:30:14;6.10;;;4.10;;
38567;SDS011;24338;48.280;10.970;2022-11-20T02:32:41;5.88;;;3.92;;
38567;SDS011;24338;48.280;10.970;2022-11-20T02:35:09;6.68;;;4.07;;
38567;SDS011;24338;48.280;10.970;2022-11-20T02:37:57;8.68;;;4.07;;
38567;SDS011;24338;48.280;10.970;2022-11-20T02:40:27;7.05;;;4.32;;
38567;SDS011;24338;48.280;10.970;2022-11-20T02:42:55;7.07;;;3.85;;
38567;SDS011;24338;48.280;10.970;2022-11-20T02:45:23;6.53;;;3.97;;
38567;SDS011;24338;48.280;10.970;2022-11-20T02:47:50;6.53;;;4.20;;
38567;SDS011;24338;48.280;10.970;2022-11-20T02:50:18;8.18;;;4.00;;
38567;SDS011;24338;48.280;10.970;2022-11-20T02:52:45;6.45;;;4.07;;
38567;SDS011;24338;48.280;10.970;2022-11-20T02:55:12;6.55;;;4.20;;
38567;SDS011;24338;48.280;10.970;2022-11-20T02:57:39;6.63;;;4.13;;
38567;SDS011;24338;48.280;10.970;2022-11-20T03:00:06;7.60;;;4.65;;
38567;SDS011;24338;48.280;10.970;2022-11-20T03:02:33;6.97;;;4.20;;
38567;SDS011;24338;48.280;10.970;2022-11-20T03:05:00;7.18;;;3.85;;
38567;SDS011;24338;48.280;10.970;2022-11-20T03:07:27;7.00;;;3.88;;
38567;SDS011;24338;48.280;10.970;2022-11-20T03:09:54;6.93;;;3.85;;
38567;SDS011;24338;48.280;10.970;2022-11-20T03:12:21;7.43;;;4.25;;
38567;SDS011;24338;48.280;10.970;2022-11-20T03:14:48;6.25;;;4.15;;
38567;SDS011;24338;48.280;10.970;2022-11-20T03:17:18;5.05;;;3.80;;
38567;SDS011;24338;48.280;10.970;2022-11-20T03:19:45;6.63;;;3.63;;
38567;SDS011;24338;48.280;10.970;2022-11-20T03:22:12;5.80;;;3.72;;
38567;SDS011;24338;48.280;10.970;2022-11-20T03:24:39;5.95;;;3.83;;
38567;SDS011;24338;48.280;10.970;2022-11-20T03:27:06;7.38;;;4.25;;
38567;SDS011;24338;48.280;10.970;2022-11-20T03:29:34;6.88;;;3.70;;
38567;SDS011;24338;48.280;10.970;2022-11-20T03:32:01;7.47;;;4.25;;
38567;SDS011;24338;48.280;10.970;2022-11-20T03:34:28;5.95;;;3.45;;
38567;SDS011;24338;48.280;10.970;2022-11-20T03:36:55;5.50;;;4.00;;
38567;SDS011;24338;48.280;10.970;2022-11-20T03:39:22;8.93;;;3.60;;
38567;SDS011;24338;48.280;10.970;2022-11-20T03:41:49;7.05;;;4.38;;
38567;SDS011;24338;48.280;10.970;2022-11-20T03:44:16;5.75;;;4.03;;
38567;SDS011;24338;48.280;10.970;2022-11-20T03:46:43;7.70;;;3.63;;
38567;SDS011;24338;48.280;10.970;2022-11-20T03:49:10;5.80;;;3.30;;
38567;SDS011;24338;48.280;10.970;2022-11-20T03:51:37;7.82;;;3.95;;
38567;SDS011;24338;48.280;10.970;2022-11-20T03:54:05;5.40;;;3.63;;
38567;SDS011;24338;48.280;10.970;2022-11-20T03:56:34;5.90;;;4.10;;
38567;SDS011;24338;48.280;10.970;2022-11-20T03:59:03;9.77;;;4.30;;
38567;SDS011;24338;48.280;10.970;2022-11-20T04:01:32;6.70;;;3.50;;
38567;SDS011;24338;48.280;10.970;2022-11-20T04:04:01;6.20;;;3.85;;
38567;SDS011;24338;48.280;10.970;2022-11-20T04:06:28;5.38;;;3.70;;
38567;SDS011;24338;48.280;10.970;2022-11-20T04:08:59;6.20;;;4.53;;
38567;SDS011;24338;48.280;10.970;2022-11-20T04:11:27;7.45;;;4.00;;
38567;SDS011;24338;48.280;10.970;2022-11-20T04:13:59;5.75;;;3.90;;
38567;SDS011;24338;48.280;10.970;2022-11-20T04:16:29;7.60;;;3.35;;
38567;SDS011;24338;48.280;10.970;2022-11-20T04:18:59;8.27;;;3.53;;
38567;SDS011;24338;48.280;10.970;2022-11-20T04:21:27;5.60;;;3.50;;
38567;SDS011;24338;48.280;10.970;2022-11-20T04:23:54;7.22;;;4.20;;
38567;SDS011;24338;48.280;10.970;2022-11-20T04:26:22;6.32;;;3.25;;
38567;SDS011;24338;48.280;10.970;2022-11-20T04:28:51;5.63;;;3.22;;
38567;SDS011;24338;48.280;10.970;2022-11-20T04:31:19;6.78;;;4.28;;
38567;SDS011;24338;48.280;10.970;2022-11-20T04:33:48;5.75;;;3.78;;
38567;SDS011;24338;48.280;10.970;2022-11-20T04:36:16;6.25;;;3.33;;
38567;SDS011;24338;48.280;10.970;2022-11-20T04:38:52;6.03;;;3.38;;
38567;SDS011;24338;48.280;10.970;2022-11-20T04:41:23;6.00;;;3.20;;
38567;SDS011;24338;48.280;10.970;2022-11-20T04:43:53;5.25;;;3.08;;
38567;SDS011;24338;48.280;10.970;2022-11-20T04:46:26;6.95;;;2.80;;
38567;SDS011;24338;48.280;10.970;2022-11-20T04:48:53;5.28;;;3.10;;
38567;SDS011;24338;48.280;10.970;2022-11-20T04:51:20;5.05;;;3.25;;
38567;SDS011;24338;48.280;10.970;2022-11-20T04:53:47;9.02;;;3.03;;
38567;SDS011;24338;48.280;10.970;2022-11-20T04:56:14;4.13;;;2.72;;
38567;SDS011;24338;48.280;10.970;2022-11-20T04:58:42;6.10;;;3.35;;
38567;SDS011;24338;48.280;10.970;2022-11-20T05:01:13;5.35;;;3.00;;
38567;SDS011;24338;48.280;10.970;2022-11-20T05:03:41;5.70;;;2.70;;
38567;SDS011;24338;48.280;10.970;2022-11-20T05:06:10;5.47;;;3.13;;
38567;SDS011;24338;48.280;10.970;2022-11-20T05:08:38;5.03;;;2.55;;
38567;SDS011;24338;48.280;10.970;2022-11-20T05:11:07;4.03;;;2.30;;
38567;SDS011;24338;48.280;10.970;2022-11-20T05:13:45;4.28;;;2.67;;
38567;SDS011;24338;48.280;10.970;2022-11-20T05:16:14;3.65;;;2.50;;
38567;SDS011;24338;48.280;10.970;2022-11-20T05:18:46;5.32;;;2.65;;
38567;SDS011;24338;48.280;10.970;2022-11-20T05:21:13;4.15;;;2.25;;
38567;SDS011;24338;48.280;10.970;2022-11-20T05:23:40;5.35;;;2.95;;
38567;SDS011;24338;48.280;10.970;2022-11-20T05:26:11;6.30;;;2.95;;
38567;SDS011;24338;48.280;10.970;2022-11-20T05:31:08;5.78;;;3.28;;
38567;SDS011;24338;48.280;10.970;2022-11-20T05:33:36;4.00;;;2.40;;
38567;SDS011;24338;48.280;10.970;2022-11-20T05:36:06;5.70;;;3.50;;
38567;SDS011;24338;48.280;10.970;2022-11-20T05:38:34;6.38;;;2.63;;
38567;SDS011;24338;48.280;10.970;2022-11-20T05:43:38;5.18;;;3.13;;
38567;SDS011;24338;48.280;10.970;2022-11-20T05:46:07;4.97;;;3.13;;
38567;SDS011;24338;48.280;10.970;2022-11-20T05:48:35;4.85;;;3.35;;
38567;SDS011;24338;48.280;10.970;2022-11-20T05:51:04;6.90;;;3.30;;
38567;SDS011;24338;48.280;10.970;2022-11-20T05:53:32;6.20;;;3.60;;
38567;SDS011;24338;48.280;10.970;2022-11-20T05:56:01;5.78;;;2.80;;
38567;SDS011;24338;48.280;10.970;2022-11-20T05:58:33;5.65;;;2.95;;
38567;SDS011;24338;48.280;10.970;2022-11-20T06:01:07;6.43;;;3.20;;
38567;SDS011;24338;48.280;10.970;2022-11-20T06:03:43;5.85;;;3.60;;
38567;SDS011;24338;48.280;10.970;2022-11-20T06:06:14;5.18;;;3.00;;
38567;SDS011;24338;48.280;10.970;2022-11-20T06:08:42;5.13;;;3.25;;
38567;SDS011;24338;48.280;10.970;2022-11-20T06:11:10;7.55;;;3.65;;
38567;SDS011;24338;48.280;10.970;2022-11-20T06:13:39;5.82;;;2.53;;
38567;SDS011;24338;48.280;10.970;2022-11-20T06:16:08;5.18;;;2.92;;
38567;SDS011;24338;48.280;10.970;2022-11-20T06:18:36;5.20;;;2.90;;
38567;SDS011;24338;48.280;10.970;2022-11-20T06:21:04;4.10;;;2.65;;
38567;SDS011;24338;48.280;10.970;2022-11-20T06:23:39;5.57;;;2.97;;
38567;SDS011;24338;48.280;10.970;2022-11-20T06:26:07;4.80;;;3.10;;
38567;SDS011;24338;48.280;10.970;2022-11-20T06:28:35;5.35;;;2.65;;
38567;SDS011;24338;48.280;10.970;2022-11-20T06:31:04;4.63;;;2.50;;
38567;SDS011;24338;48.280;10.970;2022-11-20T06:33:31;6.43;;;3.08;;
38567;SDS011;24338;48.280;10.970;2022-11-20T06:35:59;5.68;;;3.72;;
38567;SDS011;24338;48.280;10.970;2022-11-20T06:38:35;6.28;;;3.30;;
38567;SDS011;24338;48.280;10.970;2022-11-20T06:41:02;5.60;;;3.67;;
38567;SDS011;24338;48.280;10.970;2022-11-20T06:43:30;5.28;;;3.08;;
38567;SDS011;24338;48.280;10.970;2022-11-20T06:45:57;4.63;;;2.78;;
38567;SDS011;24338;48.280;10.970;2022-11-20T06:48:26;5.20;;;3.20;;
38567;SDS011;24338;48.280;10.970;2022-11-20T06:50:54;6.22;;;3.80;;
38567;SDS011;24338;48.280;10.970;2022-11-20T06:53:21;6.00;;;3.42;;
38567;SDS011;24338;48.280;10.970;2022-11-20T06:55:49;5.05;;;3.17;;
38567;SDS011;24338;48.280;10.970;2022-11-20T06:58:17;4.28;;;2.75;;
38567;SDS011;24338;48.280;10.970;2022-11-20T07:00:44;5.75;;;2.90;;
38567;SDS011;24338;48.280;10.970;2022-11-20T07:03:11;5.97;;;3.22;;
38567;SDS011;24338;48.280;10.970;2022-11-20T07:05:39;5.68;;;3.08;;
38567;SDS011;24338;48.280;10.970;2022-11-20T07:08:06;4.88;;;3.03;;
38567;SDS011;24338;48.280;10.970;2022-11-20T07:10:33;4.78;;;3.17;;
38567;SDS011;24338;48.280;10.970;2022-11-20T07:13:01;6.07;;;3.42;;
38567;SDS011;24338;48.280;10.970;2022-11-20T07:15:28;5.57;;;3.42;;
38567;SDS011;24338;48.280;10.970;2022-11-20T07:17:55;6.18;;;2.85;;
38567;SDS011;24338;48.280;10.970;2022-11-20T07:20:24;5.28;;;2.83;;
38567;SDS011;24338;48.280;10.970;2022-11-20T07:22:54;6.03;;;3.10;;
38567;SDS011;24338;48.280;10.970;2022-11-20T07:25:22;5.75;;;3.00;;
38567;SDS011;24338;48.280;10.970;2022-11-20T07:27:50;5.57;;;3.47;;
38567;SDS011;24338;48.280;10.970;2022-11-20T07:30:17;6.60;;;3.25;;
38567;SDS011;24338;48.280;10.970;2022-11-20T07:32:50;5.38;;;3.47;;
38567;SDS011;24338;48.280;10.970;2022-11-20T07:35:18;5.60;;;3.08;;
38567;SDS011;24338;48.280;10.970;2022-11-20T07:37:45;5.05;;;2.97;;
38567;SDS011;24338;48.280;10.970;2022-11-20T07:40:15;5.05;;;3.10;;
38567;SDS011;24338;48.280;10.970;2022-11-20T07:45:17;5.07;;;3.08;;
38567;SDS011;24338;48.280;10.970;2022-11-20T07:47:45;5.22;;;3.15;;
38567;SDS011;24338;48.280;10.970;2022-11-20T07:50:12;5.93;;;3.03;;
38567;SDS011;24338;48.280;10.970;2022-11-20T07:52:39;5.43;;;3.45;;
38567;SDS011;24338;48.280;10.970;2022-11-20T07:55:07;6.07;;;3.35;;
38567;SDS011;24338;48.280;10.970;2022-11-20T07:57:34;6.40;;;3.22;;
38567;SDS011;24338;48.280;10.970;2022-11-20T08:00:02;6.00;;;3.92;;
38567;SDS011;24338;48.280;10.970;2022-11-20T08:02:30;5.97;;;3.90;;
38567;SDS011;24338;48.280;10.970;2022-11-20T08:04:57;5.28;;;3.20;;
38567;SDS011;24338;48.280;10.970;2022-11-20T08:07:24;7.15;;;4.13;;
38567;SDS011;24338;48.280;10.970;2022-11-20T08:09:51;5.65;;;3.60;;
38567;SDS011;24338;48.280;10.970;2022-11-20T08:12:18;7.05;;;4.35;;
38567;SDS011;24338;48.280;10.970;2022-11-20T08:15:05;5.60;;;3.67;;
38567;SDS011;24338;48.280;10.970;2022-11-20T08:17:38;6.28;;;4.13;;
38567;SDS011;24338;48.280;10.970;2022-11-20T08:20:05;6.55;;;3.45;;
38567;SDS011;24338;48.280;10.970;2022-11-20T08:22:32;6.13;;;3.90;;
38567;SDS011;24338;48.280;10.970;2022-11-20T08:24:59;6.35;;;3.85;;
38567;SDS011;24338;48.280;10.970;2022-11-20T08:27:26;6.18;;;3.55;;
38567;SDS011;24338;48.280;10.970;2022-11-20T08:29:53;5.63;;;3.22;;
38567;SDS011;24338;48.280;10.970;2022-11-20T08:32:19;7.57;;;4.47;;
38567;SDS011;24338;48.280;10.970;2022-11-20T08:34:46;5.07;;;3.05;;
38567;SDS011;24338;48.280;10.970;2022-11-20T08:37:13;4.85;;;3.33;;
38567;SDS011;24338;48.280;10.970;2022-11-20T08:39:40;8.10;;;4.05;;
38567;SDS011;24338;48.280;10.970;2022-11-20T08:42:07;8.10;;;3.63;;
38567;SDS011;24338;48.280;10.970;2022-11-20T08:44:34;4.68;;;3.03;;
38567;SDS011;24338;48.280;10.970;2022-11-20T08:47:01;6.13;;;3.45;;
38567;SDS011;24338;48.280;10.970;2022-11-20T08:49:28;4.65;;;2.90;;
38567;SDS011;24338;48.280;10.970;2022-11-20T08:51:55;5.45;;;3.65;;
38567;SDS011;24338;48.280;10.970;2022-11-20T08:54:21;5.95;;;3.88;;
38567;SDS011;24338;48.280;10.970;2022-11-20T08:56:48;5.63;;;2.85;;
38567;SDS011;24338;48.280;10.970;2022-11-20T08:59:15;4.95;;;2.50;;
38567;SDS011;24338;48.280;10.970;2022-11-20T09:02:02;5.35;;;2.85;;
38567;SDS011;24338;48.280;10.970;2022-11-20T09:04:29;4.90;;;2.80;;
38567;SDS011;24338;48.280;10.970;2022-11-20T09:06:56;4.00;;;2.35;;
38567;SDS011;24338;48.280;10.970;2022-11-20T09:09:22;4.82;;;2.72;;
38567;SDS011;24338;48.280;10.970;2022-11-20T09:11:50;6.13;;;3.03;;
38567;SDS011;24338;48.280;10.970;2022-11-20T09:14:17;4.75;;;2.33;;
38567;SDS011;24338;48.280;10.970;2022-11-20T09:16:45;3.83;;;1.90;;
38567;SDS011;24338;48.280;10.970;2022-11-20T09:19:12;5.40;;;2.72;;
38567;SDS011;24338;48.280;10.970;2022-11-20T09:21:59;4.13;;;2.10;;
38567;SDS011;24338;48.280;10.970;2022-11-20T09:24:26;4.28;;;2.20;;
38567;SDS011;24338;48.280;10.970;2022-11-20T09:26:54;4.03;;;1.88;;
38567;SDS011;24338;48.280;10.970;2022-11-20T09:29:20;4.50;;;2.20;;
38567;SDS011;24338;48.280;10.970;2022-11-20T09:31:48;5.20;;;2.88;;
38567;SDS011;24338;48.280;10.970;2022-11-20T09:34:15;3.40;;;1.92;;
38567;SDS011;24338;48.280;10.970;2022-11-20T09:36:42;4.85;;;2.40;;
38567;SDS011;24338;48.280;10.970;2022-11-20T09:39:09;5.03;;;1.77;;
38567;SDS011;24338;48.280;10.970;2022-11-20T09:41:49;4.05;;;2.15;;
38567;SDS011;24338;48.280;10.970;2022-11-20T09:46:53;5.18;;;2.03;;
38567;SDS011;24338;48.280;10.970;2022-11-20T09:52:17;4.57;;;2.00;;
38567;SDS011;24338;48.280;10.970;2022-11-20T09:54:56;3.58;;;1.55;;
38567;SDS011;24338;48.280;10.970;2022-11-20T09:57:37;4.15;;;2.17;;
38567;SDS011;24338;48.280;10.970;2022-11-20T10:00:09;2.20;;;1.58;;
38567;SDS011;24338;48.280;10.970;2022-11-20T10:02:41;2.97;;;1.48;;
38567;SDS011;24338;48.280;10.970;2022-11-20T10:05:27;3.33;;;1.90;;
38567;SDS011;24338;48.280;10.970;2022-11-20T10:10:44;3.42;;;1.42;;
38567;SDS011;24338;48.280;10.970;2022-11-20T10:13:28;7.78;;;3.08;;
38567;SDS011;24338;48.280;10.970;2022-11-20T10:16:09;3.30;;;1.50;;
38567;SDS011;24338;48.280;10.970;2022-11-20T10:24:24;2.33;;;1.20;;
38567;SDS011;24338;48.280;10.970;2022-11-20T10:32:40;2.63;;;0.90;;
38567;SDS011;24338;48.280;10.970;2022-11-20T10:37:55;4.13;;;1.50;;
38567;SDS011;24338;48.280;10.970;2022-11-20T10:43:19;2.88;;;1.17;;
38567;SDS011;24338;48.280;10.970;2022-11-20T10:45:59;2.47;;;1.33;;
38567;SDS011;24338;48.280;10.970;2022-11-20T10:48:31;3.47;;;1.30;;
38567;SDS011;24338;48.280;10.970;2022-11-20T11:01:50;2.75;;;0.90;;
38567;SDS011;24338;48.280;10.970;2022-11-20T11:04:24;1.63;;;0.75;;
38567;SDS011;24338;48.280;10.970;2022-11-20T11:09:37;1.55;;;0.70;;
38567;SDS011;24338;48.280;10.970;2022-11-20T11:12:09;1.85;;;0.60;;
38567;SDS011;24338;48.280;10.970;2022-11-20T11:14:47;1.80;;;0.77;;
38567;SDS011;24338;48.280;10.970;2022-11-20T11:17:26;2.67;;;0.82;;
38567;SDS011;24338;48.280;10.970;2022-11-20T11:22:44;2.05;;;1.08;;
38567;SDS011;24338;48.280;10.970;2022-11-20T11:25:34;1.73;;;1.05;;
38567;SDS011;24338;48.280;10.970;2022-11-20T11:28:03;2.00;;;0.88;;
38567;SDS011;24338;48.280;10.970;2022-11-20T11:30:40;1.92;;;0.70;;
38567;SDS011;24338;48.280;10.970;2022-11-20T11:33:10;1.63;;;0.70;;
38567;SDS011;24338;48.280;10.970;2022-11-20T11:35:45;1.25;;;0.50;;
38567;SDS011;24338;48.280;10.970;2022-11-20T11:38:18;2.78;;;0.95;;
38567;SDS011;24338;48.280;10.970;2022-11-20T11:43:22;6.60;;;2.30;;
38567;SDS011;24338;48.280;10.970;2022-11-20T11:46:27;3.60;;;1.00;;
38567;SDS011;24338;48.280;10.970;2022-11-20T11:49:16;1.55;;;1.00;;
38567;SDS011;24338;48.280;10.970;2022-11-20T11:51:59;2.72;;;1.58;;
38567;SDS011;24338;48.280;10.970;2022-11-20T11:54:50;3.55;;;1.20;;
38567;SDS011;24338;48.280;10.970;2022-11-20T12:05:18;3.05;;;0.80;;
38567;SDS011;24338;48.280;10.970;2022-11-20T12:12:47;2.45;;;1.10;;
38567;SDS011;24338;48.280;10.970;2022-11-20T12:15:33;2.30;;;0.95;;
38567;SDS011;24338;48.280;10.970;2022-11-20T12:18:00;1.50;;;0.77;;
38567;SDS011;24338;48.280;10.970;2022-11-20T12:20:32;2.08;;;0.93;;
38567;SDS011;24338;48.280;10.970;2022-11-20T12:23:09;3.30;;;0.93;;
38567;SDS011;24338;48.280;10.970;2022-11-20T12:25:52;3.40;;;1.00;;
38567;SDS011;24338;48.280;10.970;2022-11-20T12:31:14;3.08;;;1.15;;
38567;SDS011;24338;48.280;10.970;2022-11-20T12:36:45;2.10;;;1.00;;
38567;SDS011;24338;48.280;10.970;2022-11-20T12:39:35;3.10;;;1.35;;
38567;SDS011;24338;48.280;10.970;2022-11-20T12:42:20;2.58;;;1.17;;
38567;SDS011;24338;48.280;10.970;2022-11-20T12:56:37;8.77;;;2.58;;
38567;SDS011;24338;48.280;10.970;2022-11-20T12:59:21;3.30;;;1.63;;
38567;SDS011;24338;48.280;10.970;2022-11-20T13:02:09;2.78;;;1.20;;
38567;SDS011;24338;48.280;10.970;2022-11-20T13:07:40;3.50;;;1.48;;
38567;SDS011;24338;48.280;10.970;2022-11-20T13:13:35;2.45;;;1.10;;
38567;SDS011;24338;48.280;10.970;2022-11-20T13:19:20;3.03;;;1.70;;
38567;SDS011;24338;48.280;10.970;2022-11-20T13:21:48;3.55;;;1.40;;
38567;SDS011;24338;48.280;10.970;2022-11-20T13:24:20;2.78;;;1.08;;
38567;SDS011;24338;48.280;10.970;2022-11-20T13:27:00;2.95;;;1.52;;
38567;SDS011;24338;48.280;10.970;2022-11-20T13:29:41;2.55;;;1.55;;
38567;SDS011;24338;48.280;10.970;2022-11-20T13:32:17;3.30;;;1.30;;
38567;SDS011;24338;48.280;10.970;2022-11-20T13:34:53;4.57;;;1.50;;
38567;SDS011;24338;48.280;10.970;2022-11-20T13:37:24;3.58;;;1.73;;
38567;SDS011;24338;48.280;10.970;2022-11-20T13:42:38;3.50;;;1.45;;
38567;SDS011;24338;48.280;10.970;2022-11-20T13:45:22;2.38;;;1.38;;
38567;SDS011;24338;48.280;10.970;2022-11-20T13:47:49;4.28;;;1.38;;
38567;SDS011;24338;48.280;10.970;2022-11-20T13:50:18;4.30;;;1.52;;
38567;SDS011;24338;48.280;10.970;2022-11-20T14:01:40;2.75;;;1.23;;
38567;SDS011;24338;48.280;10.970;2022-11-20T14:04:14;2.97;;;1.20;;
38567;SDS011;24338;48.280;10.970;2022-11-20T14:06:46;4.50;;;1.63;;
38567;SDS011;24338;48.280;10.970;2022-11-20T14:09:31;3.50;;;1.27;;
38567;SDS011;24338;48.280;10.970;2022-11-20T14:12:01;2.70;;;1.00;;
38567;SDS011;24338;48.280;10.970;2022-11-20T14:14:29;3.50;;;1.30;;
38567;SDS011;24338;48.280;10.970;2022-11-20T14:17:06;2.53;;;1.33;;
38567;SDS011;24338;48.280;10.970;2022-11-20T14:19:33;5.10;;;1.23;;
38567;SDS011;24338;48.280;10.970;2022-11-20T14:22:07;3.08;;;1.05;;
38567;SDS011;24338;48.280;10.970;2022-11-20T14:24:46;1.40;;;0.80;;
38567;SDS011;24338;48.280;10.970;2022-11-20T14:27:18;1.65;;;0.80;;
38567;SDS011;24338;48.280;10.970;2022-11-20T14:32:16;2.05;;;0.68;;
38567;SDS011;24338;48.280;10.970;2022-11-20T14:34:47;4.40;;;1.05;;
38567;SDS011;24338;48.280;10.970;2022-11-20T14:37:25;3.78;;;1.13;;
38567;SDS011;24338;48.280;10.970;2022-11-20T14:39:58;4.03;;;1.15;;
38567;SDS011;24338;48.280;10.970;2022-11-20T14:42:27;3.13;;;1.25;;
38567;SDS011;24338;48.280;10.970;2022-11-20T14:44:55;2.20;;;0.77;;
38567;SDS011;24338;48.280;10.970;2022-11-20T14:47:29;2.72;;;1.23;;
38567;SDS011;24338;48.280;10.970;2022-11-20T14:49:57;3.10;;;0.88;;
38567;SDS011;24338;48.280;10.970;2022-11-20T14:52:30;3.03;;;0.90;;
38567;SDS011;24338;48.280;10.970;2022-11-20T14:54:58;1.42;;;0.50;;
38567;SDS011;24338;48.280;10.970;2022-11-20T15:02:38;3.05;;;1.15;;
38567;SDS011;24338;48.280;10.970;2022-11-20T15:05:07;3.50;;;1.05;;
38567;SDS011;24338;48.280;10.970;2022-11-20T15:07:35;1.20;;;0.65;;
38567;SDS011;24338;48.280;10.970;2022-11-20T15:12:36;2.03;;;0.60;;
38567;SDS011;24338;48.280;10.970;2022-11-20T15:15:06;2.38;;;0.68;;
38567;SDS011;24338;48.280;10.970;2022-11-20T15:17:36;1.23;;;0.47;;
38567;SDS011;24338;48.280;10.970;2022-11-20T15:20:09;1.20;;;0.60;;
38567;SDS011;24338;48.280;10.970;2022-11-20T15:22:39;1.35;;;0.60;;
38567;SDS011;24338;48.280;10.970;2022-11-20T15:25:16;2.70;;;0.52;;
38567;SDS011;24338;48.280;10.970;2022-11-20T15:27:44;1.75;;;0.38;;
38567;SDS011;24338;48.280;10.970;2022-11-20T15:30:15;3.08;;;0.65;;
38567;SDS011;24338;48.280;10.970;2022-11-20T15:32:46;1.55;;;0.50;;
38567;SDS011;24338;48.280;10.970;2022-11-20T15:35:14;1.58;;;0.50;;
38567;SDS011;24338;48.280;10.970;2022-11-20T15:37:41;2.53;;;0.60;;
38567;SDS011;24338;48.280;10.970;2022-11-20T15:40:09;3.50;;;0.40;;
38567;SDS011;24338;48.280;10.970;2022-11-20T15:42:36;3.72;;;0.57;;
38567;SDS011;24338;48.280;10.970;2022-11-20T15:45:03;1.13;;;0.40;;
38567;SDS011;24338;48.280;10.970;2022-11-20T15:47:31;1.50;;;0.43;;
38567;SDS011;24338;48.280;10.970;2022-11-20T15:50:00;2.50;;;0.65;;
38567;SDS011;24338;48.280;10.970;2022-11-20T15:52:27;3.97;;;0.80;;
38567;SDS011;24338;48.280;10.970;2022-11-20T15:55:09;2.95;;;0.73;;
38567;SDS011;24338;48.280;10.970;2022-11-20T15:57:36;2.92;;;0.77;;
38567;SDS011;24338;48.280;10.970;2022-11-20T16:00:03;1.95;;;1.10;;
38567;SDS011;24338;48.280;10.970;2022-11-20T16:02:30;2.40;;;1.40;;
38567;SDS011;24338;48.280;10.970;2022-11-20T16:04:57;3.88;;;1.92;;
38567;SDS011;24338;48.280;10.970;2022-11-20T16:07:24;3.72;;;2.63;;
38567;SDS011;24338;48.280;10.970;2022-11-20T16:09:51;5.72;;;2.55;;
38567;SDS011;24338;48.280;10.970;2022-11-20T16:12:18;4.85;;;3.58;;
38567;SDS011;24338;48.280;10.970;2022-11-20T16:15:03;5.95;;;3.15;;
38567;SDS011;24338;48.280;10.970;2022-11-20T16:17:49;3.35;;;1.80;;
38567;SDS011;24338;48.280;10.970;2022-11-20T16:20:16;3.90;;;2.50;;
38567;SDS011;24338;48.280;10.970;2022-11-20T16:22:42;3.90;;;2.05;;
38567;SDS011;24338;48.280;10.970;2022-11-20T16:25:09;4.32;;;2.90;;
38567;SDS011;24338;48.280;10.970;2022-11-20T16:27:36;6.60;;;3.85;;
38567;SDS011;24338;48.280;10.970;2022-11-20T16:30:03;4.50;;;2.28;;
38567;SDS011;24338;48.280;10.970;2022-11-20T16:32:30;5.82;;;2.60;;
38567;SDS011;24338;48.280;10.970;2022-11-20T16:34:57;5.68;;;3.30;;
38567;SDS011;24338;48.280;10.970;2022-11-20T16:37:24;2.95;;;1.33;;
38567;SDS011;24338;48.280;10.970;2022-11-20T16:39:51;3.38;;;1.60;;
38567;SDS011;24338;48.280;10.970;2022-11-20T16:42:18;5.20;;;1.58;;
38567;SDS011;24338;48.280;10.970;2022-11-20T16:44:45;4.22;;;1.20;;
38567;SDS011;24338;48.280;10.970;2022-11-20T16:47:13;3.10;;;1.30;;